Flight Track Log - Related Links

Times and Time Zones

All times are in EST time to prevent confusion due to time zone crossing. See the OPT438 flight status page for this flight to view local times or setup timezone preferences in your user account.

Time Position Orientation Groundspeed Altitude Reporting Facility
EST Latitude Longitude Course Direction KTS MPH feet Rate Location/Type
Thu 02:23:40 PM 38.1000 -85.7000 126° Southeast 208 239 4,700  Level Louisville TRACON
Thu 02:24:57 PM 38.0886 -85.5875 97° East 297 342 7,900 2,676 Climbing Indianapolis Center
Thu 02:25:59 PM 38.0800 -85.4794 96° East 304 350 10,900 2,688 Climbing Indianapolis Center
Thu 02:27:02 PM 38.0683 -85.3328 96° East 343 395 13,500 2,352 Climbing Indianapolis Center
Thu 02:28:00 PM 38.0274 -85.0761 108° East  Level FlightAware Approximate
Thu 02:28:04 PM 38.0572 -85.2022 96° East 366 421 15,800  Level Indianapolis Center
Thu 02:29:00 PM 37.9807 -84.9703 126° Southeast  Level FlightAware Approximate
Thu 02:29:06 PM 38.0408 -85.0836 100° East 371 427 18,600  Level Indianapolis Center
Thu 02:30:08 PM 37.9811 -84.9550 120° Southeast 362 417 21,600 2,371 Climbing Indianapolis Center
Thu 02:31:10 PM 37.9436 -84.8314 111° Southeast 371 427 23,500 1,645 Climbing Indianapolis Center
Thu 02:32:12 PM 37.9011 -84.7006 112° Southeast 394 453 25,000 726 Climbing Indianapolis Center
Thu 02:33:14 PM 37.8544 -84.5586 113° Southeast 431 496 25,000 629 Level Indianapolis Center
Thu 02:34:16 PM 37.7964 -84.4139 117° Southeast 456 525 26,300 1,452 Climbing Indianapolis Center
Thu 02:35:18 PM 37.6917 -84.3039 140° Southeast 422 486 28,000 1,500 Climbing Indianapolis Center
Thu 02:36:20 PM 37.5992 -84.2158 143° Southeast 419 482 29,400 1,403 Climbing Indianapolis Center
Thu 02:37:22 PM 37.5064 -84.1281 143° Southeast 418 481 30,900 919 Climbing Indianapolis Center
Thu 02:38:24 PM 37.4106 -84.0403 144° Southeast 422 486 31,300 726 Climbing Indianapolis Center
Thu 02:39:26 PM 37.3117 -83.9500 144° Southeast 435 501 32,400 1,161 Climbing Indianapolis Center
Thu 02:40:28 PM 37.1992 -83.8467 144° Southeast 434 499 33,700 1,152 Climbing Indianapolis Center
Thu 02:41:31 PM 37.1031 -83.7581 144° Southeast 433 498 34,800 1,104 Climbing Indianapolis Center
Thu 02:42:33 PM 37.0081 -83.6717 144° Southeast 428 493 36,000 1,113 Climbing Indianapolis Center
Thu 02:43:35 PM 36.9142 -83.5864 144° Southeast 420 483 37,100 919 Climbing Indianapolis Center
Thu 02:44:37 PM 36.8206 -83.5011 144° Southeast 420 483 37,900 774 Climbing Indianapolis Center
Thu 02:45:39 PM 36.7103 -83.4014 144° Southeast 420 483 38,700 726 Climbing Indianapolis Center
Thu 02:46:41 PM 36.6142 -83.3158 144° Southeast 421 484 39,400 774 Climbing Indianapolis Center
Thu 02:47:43 PM 36.5192 -83.2294 144° Southeast 423 487 40,300 774 Climbing Indianapolis Center
Thu 02:48:45 PM 36.4242 -83.1436 144° Southeast 423 487 41,000 339 Climbing Indianapolis Center
Thu 02:49:47 PM 36.3117 -83.0444 145° Southeast 423 487 41,000  Level Indianapolis Center
Thu 02:50:49 PM 36.2142 -82.9578 144° Southeast 427 491 41,000  Level Indianapolis Center
Thu 02:51:51 PM 36.1147 -82.8700 144° Southeast 434 499 41,000  Level Indianapolis Center
Thu 02:52:51 PM 36.0100 -82.7783 145° Southeast 433 498 41,000  Level Atlanta Center
Thu 02:53:51 PM 35.9089 -82.6903 145° Southeast 439 505 41,000  Level Atlanta Center
Thu 02:54:51 PM 35.8078 -82.6022 145° Southeast 439 505 41,000  Level Atlanta Center
Thu 02:55:51 PM 35.7278 -82.5319 144° Southeast 439 505 41,000 -100 Level Atlanta Center
Thu 02:56:51 PM 35.6264 -82.4419 144° Southeast 434 499 40,800 -450 Descending Atlanta Center
Thu 02:57:51 PM 35.5253 -82.3572 146° Southeast 434 499 40,100 -650 Descending Atlanta Center
Thu 02:58:51 PM 35.4261 -82.2725 145° Southeast 434 499 39,500 -1,000 Descending Atlanta Center
Thu 02:59:51 PM 35.3286 -82.1856 144° Southeast 434 499 38,100 -1,900 Descending Atlanta Center
Thu 03:00:51 PM 35.2314 -82.1011 145° Southeast 434 499 35,700 -2,450 Descending Atlanta Center
Thu 03:01:51 PM 35.1364 -82.0222 146° Southeast 429 494 33,200 -1,450 Descending Atlanta Center
Thu 03:02:51 PM 35.0411 -81.9408 145° Southeast 424 488 32,800 -600 Descending Atlanta Center
Thu 03:03:51 PM 34.9394 -81.8622 148° Southeast 429 494 32,000 -868 Descending Atlanta Center
Thu 03:05:30 PM 34.7450 -81.7581 156° South 423 487 30,500 -868 Descending Jacksonville Center
Thu 03:06:30 PM 34.6319 -81.7067 159° South 434 499 29,700 -744 Descending Jacksonville Center
Thu 03:07:31 PM 34.5336 -81.6600 159° South 434 499 29,000 -1,300 Descending Jacksonville Center
Thu 03:08:30 PM 34.4203 -81.6089 160° South 434 499 27,100 -1,008 Descending Jacksonville Center
Thu 03:09:30 PM 34.3133 -81.5525 156° South 429 494 27,000 -298 Descending Jacksonville Center
Thu 03:10:31 PM 34.2025 -81.5217 167° South 424 488 26,500 -750 Descending Jacksonville Center
Thu 03:11:30 PM 34.0897 -81.5133 176° South 413 475 25,500 -1,008 Descending Jacksonville Center
Thu 03:12:30 PM 33.9811 -81.5100 179° South 407 468 24,500 -744 Descending Jacksonville Center
Thu 03:13:31 PM 33.8744 -81.4867 170° South 402 463 24,000 -250 Descending Jacksonville Center
Thu 03:14:30 PM 33.7881 -81.4033 141° Southeast 382 440 24,000 -353 Level Jacksonville Center
Thu 03:15:30 PM 33.7114 -81.2947 130° Southeast 395 455 23,300 -1,600 Descending Jacksonville Center
Thu 03:16:30 PM 33.6350 -81.1914 132° Southeast 408 470 20,800 -2,300 Descending Jacksonville Center
Thu 03:17:30 PM 33.5628 -81.0906 131° Southeast 413 475 18,700 -2,000 Descending Jacksonville Center
Thu 03:18:30 PM 33.4925 -80.9922 131° Southeast 400 460 16,800 -1,900 Descending Jacksonville Center
Thu 03:19:30 PM 33.4264 -80.9017 131° Southeast 378 435 14,900 -1,900 Descending Jacksonville Center
Thu 03:20:30 PM 33.3600 -80.8111 131° Southeast 368 423 13,000 -1,850 Descending Jacksonville Center
Thu 03:21:30 PM 33.2961 -80.7281 133° Southeast 356 410 11,200 -992 Descending Jacksonville Center
Thu 03:22:31 PM 33.2281 -80.6603 140° Southeast 333 383 11,000 -450 Descending Jacksonville Center
Thu 03:23:30 PM 33.1908 -80.5619 114° Southeast 314 361 10,300 -1,261 Descending Jacksonville Center
Thu 03:24:30 PM 33.1558 -80.4708 115° Southeast 308 354 8,500 -1,884 Descending Jacksonville Center
Thu 03:25:31 PM 33.1250 -80.3850 113° Southeast 294 338 6,500 -1,900 Descending Jacksonville Center
Thu 03:26:30 PM 33.0942 -80.3039 114° Southeast 283 326 4,700 -1,412 Descending Jacksonville Center
Thu 03:27:30 PM 33.0675 -80.2331 114° Southeast 261 300 3,700 -900 Descending Jacksonville Center
Thu 03:28:30 PM 33.0408 -80.1619 114° Southeast 226 260 2,900 -800 Descending Jacksonville Center
Thu 03:29:30 PM 33.0211 -80.1081 114° Southeast 201 231 2,100 -800 Descending Jacksonville Center
Thu 03:31:00 PM 32.8986 -80.0405 155° Southeast  Level Estimated
Thu 03:38:00 PM 32.8986 -80.0405 121° Southeast  Level Estimated
Thu 03:39:00 PM 32.8986 -80.0405 121° Southeast  Level Estimated
Thu 03:40:00 PM 32.8986 -80.0405 121° Southeast  Level Estimated
Thu 03:41:00 PM 32.8986 -80.0405 121° Southeast  Level Estimated
Thu 03:42:00 PM 32.8986 -80.0405 121° Southeast  Level Estimated

Login

Don't have an account? Register now (free) for customized features, flight alerts, and more!